sensor_id;sensor_type;location;lat;lon;timestamp;pressure;altitude;pressure_sealevel;temperature;humidity
55068;BME280;40965;52.368;9.712;2022-12-10T00:01:27;100174.97;;;-0.83;100.00
55068;BME280;40965;52.368;9.712;2022-12-10T00:03:55;100170.66;;;-0.84;100.00
55068;BME280;40965;52.368;9.712;2022-12-10T00:06:24;100175.75;;;-0.86;100.00
55068;BME280;40965;52.368;9.712;2022-12-10T00:08:53;100176.59;;;-0.85;100.00
55068;BME280;40965;52.368;9.712;2022-12-10T00:11:21;100168.03;;;-0.86;100.00
55068;BME280;40965;52.368;9.712;2022-12-10T00:13:49;100168.94;;;-0.84;100.00
55068;BME280;40965;52.368;9.712;2022-12-10T00:16:18;100170.72;;;-0.81;100.00
55068;BME280;40965;52.368;9.712;2022-12-10T00:18:47;100168.06;;;-0.84;100.00
55068;BME280;40965;52.368;9.712;2022-12-10T00:21:19;100167.22;;;-0.85;100.00
55068;BME280;40965;52.368;9.712;2022-12-10T00:23:48;100177.53;;;-0.83;100.00
55068;BME280;40965;52.368;9.712;2022-12-10T00:26:20;100175.00;;;-0.81;100.00
55068;BME280;40965;52.368;9.712;2022-12-10T00:28:49;100175.88;;;-0.81;100.00
55068;BME280;40965;52.368;9.712;2022-12-10T00:31:23;100181.13;;;-0.78;100.00
55068;BME280;40965;52.368;9.712;2022-12-10T00:33:55;100181.13;;;-0.78;100.00
55068;BME280;40965;52.368;9.712;2022-12-10T00:36:25;100182.88;;;-0.77;100.00
55068;BME280;40965;52.368;9.712;2022-12-10T00:38:53;100181.16;;;-0.76;100.00
55068;BME280;40965;52.368;9.712;2022-12-10T00:41:20;100182.88;;;-0.77;100.00
55068;BME280;40965;52.368;9.712;2022-12-10T00:43:47;100186.28;;;-0.76;100.00
55068;BME280;40965;52.368;9.712;2022-12-10T00:46:15;100184.56;;;-0.76;100.00
55068;BME280;40965;52.368;9.712;2022-12-10T00:48:43;100192.38;;;-0.74;100.00
55068;BME280;40965;52.368;9.712;2022-12-10T00:51:21;100189.00;;;-0.72;100.00
55068;BME280;40965;52.368;9.712;2022-12-10T00:53:51;100190.72;;;-0.71;100.00
55068;BME280;40965;52.368;9.712;2022-12-10T00:56:21;100193.38;;;-0.69;100.00
55068;BME280;40965;52.368;9.712;2022-12-10T00:58:49;100188.16;;;-0.71;100.00
55068;BME280;40965;52.368;9.712;2022-12-10T01:01:35;100190.88;;;-0.66;100.00
55068;BME280;40965;52.368;9.712;2022-12-10T01:04:08;100192.53;;;-0.68;100.00
55068;BME280;40965;52.368;9.712;2022-12-10T01:06:43;100198.59;;;-0.66;100.00
55068;BME280;40965;52.368;9.712;2022-12-10T01:09:12;100200.34;;;-0.65;100.00
55068;BME280;40965;52.368;9.712;2022-12-10T01:11:42;100196.88;;;-0.65;100.00
55068;BME280;40965;52.368;9.712;2022-12-10T01:14:12;100204.50;;;-0.69;100.00
55068;BME280;40965;52.368;9.712;2022-12-10T01:16:40;100197.53;;;-0.73;100.00
55068;BME280;40965;52.368;9.712;2022-12-10T01:19:07;100210.41;;;-0.73;100.00
55068;BME280;40965;52.368;9.712;2022-12-10T01:21:34;100201.75;;;-0.75;100.00
55068;BME280;40965;52.368;9.712;2022-12-10T01:24:01;100206.84;;;-0.76;100.00
55068;BME280;40965;52.368;9.712;2022-12-10T01:26:31;100213.69;;;-0.77;100.00
55068;BME280;40965;52.368;9.712;2022-12-10T01:28:59;100218.78;;;-0.78;100.00
55068;BME280;40965;52.368;9.712;2022-12-10T01:31:30;100215.38;;;-0.77;100.00
55068;BME280;40965;52.368;9.712;2022-12-10T01:33:58;100220.53;;;-0.77;100.00
55068;BME280;40965;52.368;9.712;2022-12-10T01:36:30;100212.78;;;-0.79;100.00
55068;BME280;40965;52.368;9.712;2022-12-10T01:39:02;100217.09;;;-0.78;100.00
55068;BME280;40965;52.368;9.712;2022-12-10T01:41:36;100213.63;;;-0.78;100.00
55068;BME280;40965;52.368;9.712;2022-12-10T01:46:36;100221.25;;;-0.81;100.00
55068;BME280;40965;52.368;9.712;2022-12-10T01:49:06;100221.22;;;-0.83;100.00
55068;BME280;40965;52.368;9.712;2022-12-10T01:51:39;100226.38;;;-0.83;100.00
55068;BME280;40965;52.368;9.712;2022-12-10T01:54:14;100223.75;;;-0.85;100.00
55068;BME280;40965;52.368;9.712;2022-12-10T01:56:45;100227.97;;;-0.87;100.00
55068;BME280;40965;52.368;9.712;2022-12-10T01:59:14;100228.13;;;-0.82;100.00
55068;BME280;40965;52.368;9.712;2022-12-10T02:01:57;100225.53;;;-0.82;100.00
55068;BME280;40965;52.368;9.712;2022-12-10T02:04:44;100222.13;;;-0.81;100.00
55068;BME280;40965;52.368;9.712;2022-12-10T02:13:04;100223.97;;;-0.77;100.00
55068;BME280;40965;52.368;9.712;2022-12-10T02:15:47;100224.81;;;-0.78;100.00
55068;BME280;40965;52.368;9.712;2022-12-10T02:18:36;100224.84;;;-0.76;100.00
55068;BME280;40965;52.368;9.712;2022-12-10T02:21:13;100221.50;;;-0.74;100.00
55068;BME280;40965;52.368;9.712;2022-12-10T02:23:54;100214.72;;;-0.72;100.00
55068;BME280;40965;52.368;9.712;2022-12-10T02:29:19;100207.72;;;-0.76;100.00
55068;BME280;40965;52.368;9.712;2022-12-10T02:31:52;100206.03;;;-0.75;100.00
55068;BME280;40965;52.368;9.712;2022-12-10T02:34:23;100203.47;;;-0.75;100.00
55068;BME280;40965;52.368;9.712;2022-12-10T02:36:53;100201.75;;;-0.75;100.00
55068;BME280;40965;52.368;9.712;2022-12-10T02:39:36;100202.56;;;-0.76;100.00
55068;BME280;40965;52.368;9.712;2022-12-10T02:42:05;100201.66;;;-0.78;100.00
55068;BME280;40965;52.368;9.712;2022-12-10T02:44:34;100212.81;;;-0.77;100.00
55068;BME280;40965;52.368;9.712;2022-12-10T02:47:03;100209.41;;;-0.76;100.00
55068;BME280;40965;52.368;9.712;2022-12-10T02:49:32;100210.28;;;-0.76;100.00
55068;BME280;40965;52.368;9.712;2022-12-10T02:51:59;100221.41;;;-0.77;100.00
55068;BME280;40965;52.368;9.712;2022-12-10T02:54:43;100212.94;;;-0.74;100.00
55068;BME280;40965;52.368;9.712;2022-12-10T02:57:35;100221.47;;;-0.75;100.00
55068;BME280;40965;52.368;9.712;2022-12-10T03:00:21;100214.66;;;-0.73;100.00
55068;BME280;40965;52.368;9.712;2022-12-10T03:03:33;100213.88;;;-0.71;100.00
55068;BME280;40965;52.368;9.712;2022-12-10T03:09:05;100211.25;;;-0.72;100.00
55068;BME280;40965;52.368;9.712;2022-12-10T03:11:34;100213.88;;;-0.71;100.00
55068;BME280;40965;52.368;9.712;2022-12-10T03:14:14;100207.88;;;-0.71;100.00
55068;BME280;40965;52.368;9.712;2022-12-10T03:16:53;100216.44;;;-0.71;100.00
55068;BME280;40965;52.368;9.712;2022-12-10T03:19:25;100218.19;;;-0.70;100.00
55068;BME280;40965;52.368;9.712;2022-12-10T03:21:55;100219.94;;;-0.69;100.00
55068;BME280;40965;52.368;9.712;2022-12-10T03:24:24;100213.94;;;-0.69;100.00
55068;BME280;40965;52.368;9.712;2022-12-10T03:26:53;100211.41;;;-0.68;100.00
55068;BME280;40965;52.368;9.712;2022-12-10T03:29:24;100218.22;;;-0.68;100.00
55068;BME280;40965;52.368;9.712;2022-12-10T03:31:54;100217.38;;;-0.69;100.00
55068;BME280;40965;52.368;9.712;2022-12-10T03:34:22;100210.47;;;-0.70;100.00
55068;BME280;40965;52.368;9.712;2022-12-10T03:36:49;100201.88;;;-0.72;100.00
55068;BME280;40965;52.368;9.712;2022-12-10T03:39:16;100209.56;;;-0.72;100.00
55068;BME280;40965;52.368;9.712;2022-12-10T03:41:43;100205.25;;;-0.73;100.00
55068;BME280;40965;52.368;9.712;2022-12-10T03:44:09;100210.44;;;-0.71;100.00
55068;BME280;40965;52.368;9.712;2022-12-10T03:46:36;100213.88;;;-0.71;100.00
55068;BME280;40965;52.368;9.712;2022-12-10T03:49:05;100221.50;;;-0.74;100.00
55068;BME280;40965;52.368;9.712;2022-12-10T03:51:31;100213.78;;;-0.74;100.00
55068;BME280;40965;52.368;9.712;2022-12-10T03:53:58;100205.22;;;-0.74;100.00
55068;BME280;40965;52.368;9.712;2022-12-10T03:56:24;100220.72;;;-0.71;100.00
55068;BME280;40965;52.368;9.712;2022-12-10T03:58:51;100216.34;;;-0.74;100.00
55068;BME280;40965;52.368;9.712;2022-12-10T04:01:17;100218.88;;;-0.75;100.00
55068;BME280;40965;52.368;9.712;2022-12-10T04:03:46;100220.53;;;-0.77;100.00
55068;BME280;40965;52.368;9.712;2022-12-10T04:06:18;100220.53;;;-0.77;100.00
55068;BME280;40965;52.368;9.712;2022-12-10T04:08:45;100215.25;;;-0.82;100.00
55068;BME280;40965;52.368;9.712;2022-12-10T04:11:13;100223.91;;;-0.78;100.00
55068;BME280;40965;52.368;9.712;2022-12-10T04:13:41;100229.84;;;-0.81;100.00
55068;BME280;40965;52.368;9.712;2022-12-10T04:16:25;100223.06;;;-0.79;100.00
55068;BME280;40965;52.368;9.712;2022-12-10T04:18:57;100235.09;;;-0.78;100.00
55068;BME280;40965;52.368;9.712;2022-12-10T04:21:26;100236.88;;;-0.75;100.00
55068;BME280;40965;52.368;9.712;2022-12-10T04:24:19;100238.56;;;-0.76;100.00
55068;BME280;40965;52.368;9.712;2022-12-10T04:27:16;100233.38;;;-0.77;100.00
55068;BME280;40965;52.368;9.712;2022-12-10T04:29:45;100228.16;;;-0.80;100.00
55068;BME280;40965;52.368;9.712;2022-12-10T04:32:11;100225.53;;;-0.82;100.00
55068;BME280;40965;52.368;9.712;2022-12-10T04:34:38;100227.09;;;-0.87;100.00
55068;BME280;40965;52.368;9.712;2022-12-10T04:37:05;100225.34;;;-0.88;100.00
55068;BME280;40965;52.368;9.712;2022-12-10T04:39:32;100239.00;;;-0.89;100.00
55068;BME280;40965;52.368;9.712;2022-12-10T04:42:00;100228.66;;;-0.92;100.00
55068;BME280;40965;52.368;9.712;2022-12-10T04:44:27;100229.56;;;-0.90;100.00
55068;BME280;40965;52.368;9.712;2022-12-10T04:46:53;100237.22;;;-0.92;100.00
55068;BME280;40965;52.368;9.712;2022-12-10T04:49:20;100233.69;;;-0.95;100.00
55068;BME280;40965;52.368;9.712;2022-12-10T04:51:47;100231.06;;;-0.97;100.00
55068;BME280;40965;52.368;9.712;2022-12-10T04:54:14;100234.53;;;-0.96;100.00
55068;BME280;40965;52.368;9.712;2022-12-10T04:56:40;100231.84;;;-1.00;100.00
55068;BME280;40965;52.368;9.712;2022-12-10T04:59:08;100231.84;;;-1.00;100.00
55068;BME280;40965;52.368;9.712;2022-12-10T05:01:35;100230.09;;;-1.01;100.00
55068;BME280;40965;52.368;9.712;2022-12-10T05:04:06;100236.94;;;-1.01;100.00
55068;BME280;40965;52.368;9.712;2022-12-10T05:06:34;100229.97;;;-1.05;100.00
55068;BME280;40965;52.368;9.712;2022-12-10T05:09:01;100237.63;;;-1.07;100.00
55068;BME280;40965;52.368;9.712;2022-12-10T05:11:30;100239.31;;;-1.07;100.00
55068;BME280;40965;52.368;9.712;2022-12-10T05:13:58;100233.13;;;-1.14;100.00
55068;BME280;40965;52.368;9.712;2022-12-10T05:16:27;100238.13;;;-1.19;100.00
55068;BME280;40965;52.368;9.712;2022-12-10T05:18:55;100240.63;;;-1.20;100.00
55068;BME280;40965;52.368;9.712;2022-12-10T05:21:24;100242.31;;;-1.21;100.00
55068;BME280;40965;52.368;9.712;2022-12-10T05:24:13;100239.72;;;-1.22;100.00
55068;BME280;40965;52.368;9.712;2022-12-10T05:26:40;100233.63;;;-1.24;100.00
55068;BME280;40965;52.368;9.712;2022-12-10T05:29:06;100238.72;;;-1.26;100.00
55068;BME280;40965;52.368;9.712;2022-12-10T05:31:33;100242.13;;;-1.27;100.00
55068;BME280;40965;52.368;9.712;2022-12-10T05:33:59;100234.41;;;-1.27;100.00
55068;BME280;40965;52.368;9.712;2022-12-10T05:36:28;100236.13;;;-1.27;100.00
55068;BME280;40965;52.368;9.712;2022-12-10T05:38:57;100236.13;;;-1.27;100.00
55068;BME280;40965;52.368;9.712;2022-12-10T05:41:26;100237.09;;;-1.24;100.00
55068;BME280;40965;52.368;9.712;2022-12-10T05:43:55;100242.28;;;-1.22;100.00
55068;BME280;40965;52.368;9.712;2022-12-10T05:46:25;100234.66;;;-1.19;100.00
55068;BME280;40965;52.368;9.712;2022-12-10T05:48:53;100245.88;;;-1.17;100.00
55068;BME280;40965;52.368;9.712;2022-12-10T05:51:23;100246.78;;;-1.15;100.00
55068;BME280;40965;52.368;9.712;2022-12-10T05:53:51;100249.34;;;-1.15;100.00
55068;BME280;40965;52.368;9.712;2022-12-10T05:56:20;100250.22;;;-1.14;100.00
55068;BME280;40965;52.368;9.712;2022-12-10T05:58:49;100252.81;;;-1.14;100.00
55068;BME280;40965;52.368;9.712;2022-12-10T06:01:20;100255.41;;;-1.13;100.00
55068;BME280;40965;52.368;9.712;2022-12-10T06:03:49;100263.13;;;-1.13;100.00
55068;BME280;40965;52.368;9.712;2022-12-10T06:06:28;100256.28;;;-1.12;100.00
55068;BME280;40965;52.368;9.712;2022-12-10T06:08:56;100261.38;;;-1.14;100.00
55068;BME280;40965;52.368;9.712;2022-12-10T06:11:23;100270.66;;;-1.18;100.00
55068;BME280;40965;52.368;9.712;2022-12-10T06:13:51;100264.63;;;-1.20;100.00
55068;BME280;40965;52.368;9.712;2022-12-10T06:16:18;100268.97;;;-1.17;100.00
55068;BME280;40965;52.368;9.712;2022-12-10T06:18:44;100268.06;;;-1.19;100.00
55068;BME280;40965;52.368;9.712;2022-12-10T06:21:14;100270.53;;;-1.22;100.00
55068;BME280;40965;52.368;9.712;2022-12-10T06:23:42;100268.78;;;-1.23;100.00
55068;BME280;40965;52.368;9.712;2022-12-10T06:26:12;100275.53;;;-1.25;100.00
55068;BME280;40965;52.368;9.712;2022-12-10T06:28:40;100285.94;;;-1.22;100.00
55068;BME280;40965;52.368;9.712;2022-12-10T06:31:07;100274.72;;;-1.24;100.00
55068;BME280;40965;52.368;9.712;2022-12-10T06:33:35;100274.63;;;-1.27;100.00
55068;BME280;40965;52.368;9.712;2022-12-10T06:36:04;100281.41;;;-1.29;100.00
55068;BME280;40965;52.368;9.712;2022-12-10T06:38:32;100278.75;;;-1.33;100.00
55068;BME280;40965;52.368;9.712;2022-12-10T06:41:00;100280.38;;;-1.35;100.00
55068;BME280;40965;52.368;9.712;2022-12-10T06:43:30;100280.28;;;-1.38;100.00
55068;BME280;40965;52.368;9.712;2022-12-10T06:45:56;100289.69;;;-1.38;100.00
55068;BME280;40965;52.368;9.712;2022-12-10T06:48:23;100281.88;;;-1.41;100.00
55068;BME280;40965;52.368;9.712;2022-12-10T06:50:49;100283.28;;;-1.51;100.00
55068;BME280;40965;52.368;9.712;2022-12-10T06:53:16;100285.59;;;-1.59;100.00
55068;BME280;40965;52.368;9.712;2022-12-10T06:55:42;100282.84;;;-1.63;100.00
55068;BME280;40965;52.368;9.712;2022-12-10T06:58:11;100288.69;;;-1.68;100.00
55068;BME280;40965;52.368;9.712;2022-12-10T07:00:38;100289.50;;;-1.69;100.00
55068;BME280;40965;52.368;9.712;2022-12-10T07:03:04;100299.78;;;-1.69;100.00
55068;BME280;40965;52.368;9.712;2022-12-10T07:05:31;100286.13;;;-1.68;100.00
55068;BME280;40965;52.368;9.712;2022-12-10T07:07:57;100284.41;;;-1.67;100.00
55068;BME280;40965;52.368;9.712;2022-12-10T07:10:24;100287.06;;;-1.65;100.00
55068;BME280;40965;52.368;9.712;2022-12-10T07:12:50;100293.09;;;-1.63;100.00
55068;BME280;40965;52.368;9.712;2022-12-10T07:15:17;100295.72;;;-1.62;100.00
55068;BME280;40965;52.368;9.712;2022-12-10T07:17:43;100300.97;;;-1.59;100.00
55068;BME280;40965;52.368;9.712;2022-12-10T07:20:10;100300.22;;;-1.56;100.00
55068;BME280;40965;52.368;9.712;2022-12-10T07:22:37;100307.91;;;-1.56;100.00
55068;BME280;40965;52.368;9.712;2022-12-10T07:25:04;100301.94;;;-1.55;100.00
55068;BME280;40965;52.368;9.712;2022-12-10T07:27:31;100312.19;;;-1.55;100.00
55068;BME280;40965;52.368;9.712;2022-12-10T07:29:57;100311.38;;;-1.54;100.00
55068;BME280;40965;52.368;9.712;2022-12-10T07:32:24;100313.97;;;-1.54;100.00
55068;BME280;40965;52.368;9.712;2022-12-10T07:34:53;100320.03;;;-1.52;100.00
55068;BME280;40965;52.368;9.712;2022-12-10T07:37:19;100322.69;;;-1.49;100.00
55068;BME280;40965;52.368;9.712;2022-12-10T07:39:46;100324.53;;;-1.45;100.00
55068;BME280;40965;52.368;9.712;2022-12-10T07:42:12;100327.09;;;-1.45;100.00
55068;BME280;40965;52.368;9.712;2022-12-10T07:44:39;100329.66;;;-1.45;100.00
55068;BME280;40965;52.368;9.712;2022-12-10T07:47:06;100338.25;;;-1.44;100.00
55068;BME280;40965;52.368;9.712;2022-12-10T07:49:33;100345.25;;;-1.40;100.00
55068;BME280;40965;52.368;9.712;2022-12-10T07:51:59;100336.69;;;-1.41;100.00
55068;BME280;40965;52.368;9.712;2022-12-10T07:54:26;100338.41;;;-1.40;100.00
55068;BME280;40965;52.368;9.712;2022-12-10T07:56:52;100339.19;;;-1.42;100.00
55068;BME280;40965;52.368;9.712;2022-12-10T07:59:19;100335.69;;;-1.44;100.00
55068;BME280;40965;52.368;9.712;2022-12-10T08:01:45;100335.78;;;-1.41;100.00
55068;BME280;40965;52.368;9.712;2022-12-10T08:04:12;100337.56;;;-1.40;100.00
55068;BME280;40965;52.368;9.712;2022-12-10T08:06:39;100342.63;;;-1.42;100.00
55068;BME280;40965;52.368;9.712;2022-12-10T08:09:05;100338.31;;;-1.43;100.00
55068;BME280;40965;52.368;9.712;2022-12-10T08:11:35;100344.31;;;-1.42;100.00
55068;BME280;40965;52.368;9.712;2022-12-10T08:14:01;100342.50;;;-1.45;100.00
55068;BME280;40965;52.368;9.712;2022-12-10T08:16:29;100340.94;;;-1.41;100.00
55068;BME280;40965;52.368;9.712;2022-12-10T08:18:58;100337.59;;;-1.39;100.00
55068;BME280;40965;52.368;9.712;2022-12-10T08:21:28;100333.34;;;-1.38;100.00
55068;BME280;40965;52.368;9.712;2022-12-10T08:23:57;100338.63;;;-1.34;100.00
55068;BME280;40965;52.368;9.712;2022-12-10T08:26:26;100336.88;;;-1.35;100.00
55068;BME280;40965;52.368;9.712;2022-12-10T08:28:57;100348.09;;;-1.33;100.00
55068;BME280;40965;52.368;9.712;2022-12-10T08:31:25;100348.81;;;-1.37;100.00
55068;BME280;40965;52.368;9.712;2022-12-10T08:33:53;100355.53;;;-1.40;100.00
55068;BME280;40965;52.368;9.712;2022-12-10T08:36:20;100354.66;;;-1.41;100.00
55068;BME280;40965;52.368;9.712;2022-12-10T08:38:46;100360.59;;;-1.42;100.00
55068;BME280;40965;52.368;9.712;2022-12-10T08:41:19;100360.66;;;-1.40;100.00
55068;BME280;40965;52.368;9.712;2022-12-10T08:43:47;100357.31;;;-1.38;100.00
55068;BME280;40965;52.368;9.712;2022-12-10T08:46:15;100364.97;;;-1.39;100.00
55068;BME280;40965;52.368;9.712;2022-12-10T08:48:42;100364.03;;;-1.41;100.00
55068;BME280;40965;52.368;9.712;2022-12-10T08:51:13;100365.84;;;-1.39;100.00
55068;BME280;40965;52.368;9.712;2022-12-10T08:53:41;100356.56;;;-1.35;100.00
55068;BME280;40965;52.368;9.712;2022-12-10T08:56:08;100354.97;;;-1.31;100.00
55068;BME280;40965;52.368;9.712;2022-12-10T08:58:36;100369.66;;;-1.27;100.00
55068;BME280;40965;52.368;9.712;2022-12-10T09:01:08;100368.06;;;-1.24;100.00
55068;BME280;40965;52.368;9.712;2022-12-10T09:03:36;100368.16;;;-1.21;100.00
55068;BME280;40965;52.368;9.712;2022-12-10T09:06:04;100369.97;;;-1.18;100.00
55068;BME280;40965;52.368;9.712;2022-12-10T09:08:33;100373.56;;;-1.13;100.00
55068;BME280;40965;52.368;9.712;2022-12-10T09:11:08;100374.44;;;-1.12;100.00
55068;BME280;40965;52.368;9.712;2022-12-10T09:13:42;100375.31;;;-1.12;100.00
55068;BME280;40965;52.368;9.712;2022-12-10T09:16:10;100380.50;;;-1.10;100.00
55068;BME280;40965;52.368;9.712;2022-12-10T09:18:36;100386.47;;;-1.11;100.00
55068;BME280;40965;52.368;9.712;2022-12-10T09:21:12;100385.69;;;-1.09;100.00
55068;BME280;40965;52.368;9.712;2022-12-10T09:23:41;100390.88;;;-1.07;100.00
55068;BME280;40965;52.368;9.712;2022-12-10T09:26:10;100390.00;;;-1.08;100.00
55068;BME280;40965;52.368;9.712;2022-12-10T09:28:40;100388.25;;;-1.09;100.00
55068;BME280;40965;52.368;9.712;2022-12-10T09:31:09;100388.22;;;-1.10;100.00
55068;BME280;40965;52.368;9.712;2022-12-10T09:33:36;100384.84;;;-1.09;100.00
55068;BME280;40965;52.368;9.712;2022-12-10T09:36:05;100391.78;;;-1.07;100.00
55068;BME280;40965;52.368;9.712;2022-12-10T09:38:41;100390.00;;;-1.08;100.00
55068;BME280;40965;52.368;9.712;2022-12-10T09:41:38;100393.41;;;-1.09;100.00
55068;BME280;40965;52.368;9.712;2022-12-10T09:45:01;100386.47;;;-1.11;100.00
55068;BME280;40965;52.368;9.712;2022-12-10T09:47:41;100385.53;;;-1.13;100.00
55068;BME280;40965;52.368;9.712;2022-12-10T09:53:28;100386.81;;;-1.01;100.00
55068;BME280;40965;52.368;9.712;2022-12-10T09:55:55;100386.94;;;-0.97;100.00
55068;BME280;40965;52.368;9.712;2022-12-10T09:58:26;100389.56;;;-0.96;100.00
55068;BME280;40965;52.368;9.712;2022-12-10T10:01:02;100388.88;;;-0.90;100.00
55068;BME280;40965;52.368;9.712;2022-12-10T10:03:48;100384.50;;;-0.93;100.00
55068;BME280;40965;52.368;9.712;2022-12-10T10:06:16;100385.34;;;-0.94;100.00
55068;BME280;40965;52.368;9.712;2022-12-10T10:08:46;100388.06;;;-0.89;100.00
55068;BME280;40965;52.368;9.712;2022-12-10T10:11:35;100383.00;;;-0.86;100.00
55068;BME280;40965;52.368;9.712;2022-12-10T10:14:06;100393.38;;;-0.85;100.00
55068;BME280;40965;52.368;9.712;2022-12-10T10:16:54;100386.31;;;-0.90;100.00
55068;BME280;40965;52.368;9.712;2022-12-10T10:19:30;100386.03;;;-0.98;100.00
55068;BME280;40965;52.368;9.712;2022-12-10T10:21:58;100398.03;;;-0.98;100.00
55068;BME280;40965;52.368;9.712;2022-12-10T10:24:35;100385.19;;;-0.98;100.00
55068;BME280;40965;52.368;9.712;2022-12-10T10:27:15;100387.75;;;-0.98;100.00
55068;BME280;40965;52.368;9.712;2022-12-10T10:29:48;100384.47;;;-0.94;100.00
55068;BME280;40965;52.368;9.712;2022-12-10T10:32:22;100388.88;;;-0.90;100.00
55068;BME280;40965;52.368;9.712;2022-12-10T10:34:54;100387.34;;;-0.85;100.00
55068;BME280;40965;52.368;9.712;2022-12-10T10:37:27;100386.56;;;-0.82;100.00
55068;BME280;40965;52.368;9.712;2022-12-10T10:39:55;100390.09;;;-0.79;100.00
55068;BME280;40965;52.368;9.712;2022-12-10T10:42:42;100391.91;;;-0.76;100.00
55068;BME280;40965;52.368;9.712;2022-12-10T10:50:44;100393.44;;;-0.81;100.00
55068;BME280;40965;52.368;9.712;2022-12-10T10:53:43;100390.03;;;-0.82;100.00
55068;BME280;40965;52.368;9.712;2022-12-10T10:56:25;100388.22;;;-0.85;100.00
55068;BME280;40965;52.368;9.712;2022-12-10T10:59:03;100389.84;;;-0.87;100.00
55068;BME280;40965;52.368;9.712;2022-12-10T11:01:54;100402.69;;;-0.87;100.00
55068;BME280;40965;52.368;9.712;2022-12-10T11:04:29;100392.34;;;-0.90;100.00
55068;BME280;40965;52.368;9.712;2022-12-10T11:07:18;100398.25;;;-0.92;100.00
55068;BME280;40965;52.368;9.712;2022-12-10T11:09:45;100398.19;;;-0.94;100.00
55068;BME280;40965;52.368;9.712;2022-12-10T11:12:35;100400.78;;;-0.94;100.00
55068;BME280;40965;52.368;9.712;2022-12-10T11:17:53;100397.25;;;-0.96;100.00
55068;BME280;40965;52.368;9.712;2022-12-10T11:20:24;100397.22;;;-0.97;100.00
55068;BME280;40965;52.368;9.712;2022-12-10T11:23:08;100388.53;;;-1.01;100.00
55068;BME280;40965;52.368;9.712;2022-12-10T11:25:57;100382.56;;;-1.00;100.00
55068;BME280;40965;52.368;9.712;2022-12-10T11:29:04;100389.34;;;-1.02;100.00
55068;BME280;40965;52.368;9.712;2022-12-10T11:34:30;100384.19;;;-1.02;100.00
55068;BME280;40965;52.368;9.712;2022-12-10T11:37:17;100386.78;;;-1.02;100.00
55068;BME280;40965;52.368;9.712;2022-12-10T11:40:13;100391.03;;;-1.03;100.00
55068;BME280;40965;52.368;9.712;2022-12-10T11:46:01;100387.66;;;-1.02;100.00
55068;BME280;40965;52.368;9.712;2022-12-10T11:48:51;100385.13;;;-1.00;100.00
55068;BME280;40965;52.368;9.712;2022-12-10T11:54:47;100386.81;;;-1.01;100.00
55068;BME280;40965;52.368;9.712;2022-12-10T11:58:11;100396.28;;;-1.00;100.00
55068;BME280;40965;52.368;9.712;2022-12-10T12:00:48;100387.72;;;-1.00;100.00
55068;BME280;40965;52.368;9.712;2022-12-10T12:03:46;100392.94;;;-0.97;100.00
55068;BME280;40965;52.368;9.712;2022-12-10T12:15:39;100395.41;;;-1.00;100.00
55068;BME280;40965;52.368;9.712;2022-12-10T12:21:15;100403.06;;;-1.02;100.00
55068;BME280;40965;52.368;9.712;2022-12-10T12:23:44;100398.84;;;-1.00;100.00
55068;BME280;40965;52.368;9.712;2022-12-10T12:26:35;100397.16;;;-0.99;100.00
55068;BME280;40965;52.368;9.712;2022-12-10T12:29:23;100398.13;;;-0.95;100.00
55068;BME280;40965;52.368;9.712;2022-12-10T12:32:00;100399.19;;;-0.89;100.00
55068;BME280;40965;52.368;9.712;2022-12-10T12:37:09;100397.31;;;-0.94;100.00
55068;BME280;40965;52.368;9.712;2022-12-10T12:39:45;100398.25;;;-0.92;100.00
55068;BME280;40965;52.368;9.712;2022-12-10T12:42:22;100393.09;;;-0.92;100.00
55068;BME280;40965;52.368;9.712;2022-12-10T12:45:01;100389.59;;;-0.94;100.00
55068;BME280;40965;52.368;9.712;2022-12-10T12:47:55;100378.41;;;-0.96;100.00
55068;BME280;40965;52.368;9.712;2022-12-10T12:50:47;100392.03;;;-0.99;100.00
55068;BME280;40965;52.368;9.712;2022-12-10T12:53:24;100380.91;;;-0.98;100.00
55068;BME280;40965;52.368;9.712;2022-12-10T12:58:50;100381.13;;;-0.92;100.00
55068;BME280;40965;52.368;9.712;2022-12-10T13:01:40;100388.81;;;-0.92;100.00
55068;BME280;40965;52.368;9.712;2022-12-10T13:04:10;100388.06;;;-0.89;100.00
55068;BME280;40965;52.368;9.712;2022-12-10T13:06:39;100381.88;;;-0.94;100.00
55068;BME280;40965;52.368;9.712;2022-12-10T13:12:16;100398.25;;;-0.92;100.00
55068;BME280;40965;52.368;9.712;2022-12-10T13:17:33;100405.22;;;-0.88;100.00
55068;BME280;40965;52.368;9.712;2022-12-10T13:20:25;100391.44;;;-0.90;100.00
55068;BME280;40965;52.368;9.712;2022-12-10T13:25:57;100409.59;;;-0.86;100.00
55068;BME280;40965;52.368;9.712;2022-12-10T13:34:04;100406.91;;;-0.89;100.00
55068;BME280;40965;52.368;9.712;2022-12-10T13:39:32;100408.47;;;-0.94;100.00
55068;BME280;40965;52.368;9.712;2022-12-10T13:45:04;100406.69;;;-0.96;100.00
55068;BME280;40965;52.368;9.712;2022-12-10T13:47:52;100406.72;;;-0.95;100.00
55068;BME280;40965;52.368;9.712;2022-12-10T13:50:34;100408.47;;;-0.94;100.00
55068;BME280;40965;52.368;9.712;2022-12-10T13:53:14;100415.47;;;-0.90;100.00
55068;BME280;40965;52.368;9.712;2022-12-10T14:04:28;100427.47;;;-0.89;100.00
55068;BME280;40965;52.368;9.712;2022-12-10T14:06:57;100424.81;;;-0.92;100.00
55068;BME280;40965;52.368;9.712;2022-12-10T14:09:30;100429.09;;;-0.92;100.00
55068;BME280;40965;52.368;9.712;2022-12-10T14:12:12;100432.41;;;-0.95;100.00
55068;BME280;40965;52.368;9.712;2022-12-10T14:14:46;100434.94;;;-0.96;100.00
55068;BME280;40965;52.368;9.712;2022-12-10T14:17:19;100434.00;;;-0.98;100.00
55068;BME280;40965;52.368;9.712;2022-12-10T14:19:49;100433.13;;;-0.99;100.00
55068;BME280;40965;52.368;9.712;2022-12-10T14:22:28;100434.81;;;-1.00;100.00
55068;BME280;40965;52.368;9.712;2022-12-10T14:25:03;100451.03;;;-1.01;100.00
55068;BME280;40965;52.368;9.712;2022-12-10T14:27:33;100444.19;;;-1.02;100.00
55068;BME280;40965;52.368;9.712;2022-12-10T14:30:23;100441.50;;;-1.05;100.00